sensor_id;sensor_type;location;lat;lon;timestamp;P1;durP1;ratioP1;P2;durP2;ratioP2
65684;SDS011;52405;50.844;-1.062;2022-10-13T00:01:13;4.85;;;1.80;;
65684;SDS011;52405;50.844;-1.062;2022-10-13T00:03:41;3.92;;;1.20;;
65684;SDS011;52405;50.844;-1.062;2022-10-13T00:06:11;2.75;;;1.40;;
65684;SDS011;52405;50.844;-1.062;2022-10-13T00:08:38;7.22;;;1.42;;
65684;SDS011;52405;50.844;-1.062;2022-10-13T00:11:12;2.78;;;1.20;;
65684;SDS011;52405;50.844;-1.062;2022-10-13T00:13:39;4.53;;;1.20;;
65684;SDS011;52405;50.844;-1.062;2022-10-13T00:16:05;3.50;;;1.20;;
65684;SDS011;52405;50.844;-1.062;2022-10-13T00:18:32;7.07;;;1.27;;
65684;SDS011;52405;50.844;-1.062;2022-10-13T00:20:58;5.38;;;1.15;;
65684;SDS011;52405;50.844;-1.062;2022-10-13T00:23:23;5.57;;;1.42;;
65684;SDS011;52405;50.844;-1.062;2022-10-13T00:25:49;2.85;;;1.00;;
65684;SDS011;52405;50.844;-1.062;2022-10-13T00:28:15;4.47;;;1.08;;
65684;SDS011;52405;50.844;-1.062;2022-10-13T00:30:42;6.07;;;1.27;;
65684;SDS011;52405;50.844;-1.062;2022-10-13T00:33:09;5.13;;;1.40;;
65684;SDS011;52405;50.844;-1.062;2022-10-13T00:35:39;8.85;;;1.95;;
65684;SDS011;52405;50.844;-1.062;2022-10-13T00:38:10;10.05;;;1.52;;
65684;SDS011;52405;50.844;-1.062;2022-10-13T00:43:48;7.60;;;1.80;;
65684;SDS011;52405;50.844;-1.062;2022-10-13T00:46:26;6.70;;;1.75;;
65684;SDS011;52405;50.844;-1.062;2022-10-13T00:49:00;9.80;;;2.67;;
65684;SDS011;52405;50.844;-1.062;2022-10-13T00:51:33;4.63;;;1.25;;
65684;SDS011;52405;50.844;-1.062;2022-10-13T00:54:03;4.10;;;1.42;;
65684;SDS011;52405;50.844;-1.062;2022-10-13T00:56:30;5.72;;;2.13;;
65684;SDS011;52405;50.844;-1.062;2022-10-13T00:58:56;17.02;;;2.55;;
65684;SDS011;52405;50.844;-1.062;2022-10-13T01:01:23;4.57;;;1.05;;
65684;SDS011;52405;50.844;-1.062;2022-10-13T01:03:48;5.15;;;1.45;;
65684;SDS011;52405;50.844;-1.062;2022-10-13T01:06:14;2.60;;;1.02;;
65684;SDS011;52405;50.844;-1.062;2022-10-13T01:08:41;12.93;;;2.03;;
65684;SDS011;52405;50.844;-1.062;2022-10-13T01:30:13;2.42;;;0.70;;
65684;SDS011;52405;50.844;-1.062;2022-10-13T01:37:54;1.17;;;0.80;;
65684;SDS011;52405;50.844;-1.062;2022-10-13T01:43:29;2.78;;;1.10;;
65684;SDS011;52405;50.844;-1.062;2022-10-13T01:45:53;4.27;;;1.17;;
65684;SDS011;52405;50.844;-1.062;2022-10-13T01:48:24;5.25;;;1.10;;
65684;SDS011;52405;50.844;-1.062;2022-10-13T01:50:52;8.10;;;1.67;;
65684;SDS011;52405;50.844;-1.062;2022-10-13T01:53:19;4.97;;;1.33;;
65684;SDS011;52405;50.844;-1.062;2022-10-13T01:55:55;2.28;;;1.15;;
65684;SDS011;52405;50.844;-1.062;2022-10-13T01:58:23;9.13;;;1.65;;
65684;SDS011;52405;50.844;-1.062;2022-10-13T02:03:37;2.17;;;1.50;;
65684;SDS011;52405;50.844;-1.062;2022-10-13T02:06:22;1.75;;;1.30;;
65684;SDS011;52405;50.844;-1.062;2022-10-13T02:09:09;2.65;;;1.40;;
65684;SDS011;52405;50.844;-1.062;2022-10-13T02:11:41;4.05;;;1.27;;
65684;SDS011;52405;50.844;-1.062;2022-10-13T02:14:17;3.40;;;1.30;;
65684;SDS011;52405;50.844;-1.062;2022-10-13T02:16:50;2.83;;;1.48;;
65684;SDS011;52405;50.844;-1.062;2022-10-13T02:19:18;4.25;;;1.50;;
65684;SDS011;52405;50.844;-1.062;2022-10-13T02:21:44;2.20;;;1.23;;
65684;SDS011;52405;50.844;-1.062;2022-10-13T02:24:11;3.97;;;1.48;;
65684;SDS011;52405;50.844;-1.062;2022-10-13T02:26:37;3.83;;;1.63;;
65684;SDS011;52405;50.844;-1.062;2022-10-13T02:29:12;2.90;;;1.88;;
65684;SDS011;52405;50.844;-1.062;2022-10-13T02:31:40;3.13;;;1.67;;
65684;SDS011;52405;50.844;-1.062;2022-10-13T02:34:08;9.60;;;1.80;;
65684;SDS011;52405;50.844;-1.062;2022-10-13T02:36:33;4.90;;;1.98;;
65684;SDS011;52405;50.844;-1.062;2022-10-13T02:39:02;5.75;;;1.20;;
65684;SDS011;52405;50.844;-1.062;2022-10-13T02:41:28;6.75;;;2.40;;
65684;SDS011;52405;50.844;-1.062;2022-10-13T02:43:54;3.85;;;1.73;;
65684;SDS011;52405;50.844;-1.062;2022-10-13T02:46:19;2.92;;;1.40;;
65684;SDS011;52405;50.844;-1.062;2022-10-13T02:48:45;2.70;;;2.00;;
65684;SDS011;52405;50.844;-1.062;2022-10-13T02:51:11;5.45;;;2.10;;
65684;SDS011;52405;50.844;-1.062;2022-10-13T02:53:36;6.75;;;1.80;;
65684;SDS011;52405;50.844;-1.062;2022-10-13T02:56:02;2.50;;;1.60;;
65684;SDS011;52405;50.844;-1.062;2022-10-13T02:58:27;3.20;;;1.70;;
65684;SDS011;52405;50.844;-1.062;2022-10-13T03:00:53;2.88;;;1.50;;
65684;SDS011;52405;50.844;-1.062;2022-10-13T03:03:18;6.45;;;1.40;;
65684;SDS011;52405;50.844;-1.062;2022-10-13T03:05:44;3.40;;;2.00;;
65684;SDS011;52405;50.844;-1.062;2022-10-13T03:08:09;3.28;;;1.10;;
65684;SDS011;52405;50.844;-1.062;2022-10-13T03:10:35;3.70;;;1.00;;
65684;SDS011;52405;50.844;-1.062;2022-10-13T03:13:01;3.20;;;0.98;;
65684;SDS011;52405;50.844;-1.062;2022-10-13T03:15:26;2.88;;;1.00;;
65684;SDS011;52405;50.844;-1.062;2022-10-13T03:17:52;3.15;;;0.90;;
65684;SDS011;52405;50.844;-1.062;2022-10-13T03:20:17;3.45;;;1.05;;
65684;SDS011;52405;50.844;-1.062;2022-10-13T03:22:43;1.95;;;0.95;;
65684;SDS011;52405;50.844;-1.062;2022-10-13T03:25:08;1.55;;;1.30;;
65684;SDS011;52405;50.844;-1.062;2022-10-13T03:27:34;3.10;;;1.13;;
65684;SDS011;52405;50.844;-1.062;2022-10-13T03:30:00;2.53;;;0.90;;
65684;SDS011;52405;50.844;-1.062;2022-10-13T03:32:25;5.97;;;1.00;;
65684;SDS011;52405;50.844;-1.062;2022-10-13T03:34:51;5.53;;;1.60;;
65684;SDS011;52405;50.844;-1.062;2022-10-13T03:37:16;5.25;;;1.83;;
65684;SDS011;52405;50.844;-1.062;2022-10-13T03:39:42;2.28;;;0.93;;
65684;SDS011;52405;50.844;-1.062;2022-10-13T03:42:08;3.40;;;0.90;;
65684;SDS011;52405;50.844;-1.062;2022-10-13T03:44:34;3.35;;;1.15;;
65684;SDS011;52405;50.844;-1.062;2022-10-13T03:46:59;3.03;;;1.20;;
65684;SDS011;52405;50.844;-1.062;2022-10-13T03:49:25;2.10;;;1.00;;
65684;SDS011;52405;50.844;-1.062;2022-10-13T03:51:50;5.53;;;1.48;;
65684;SDS011;52405;50.844;-1.062;2022-10-13T03:54:16;6.82;;;1.55;;
65684;SDS011;52405;50.844;-1.062;2022-10-13T03:56:42;2.63;;;1.20;;
65684;SDS011;52405;50.844;-1.062;2022-10-13T03:59:09;4.65;;;1.00;;
65684;SDS011;52405;50.844;-1.062;2022-10-13T04:01:36;4.38;;;1.10;;
65684;SDS011;52405;50.844;-1.062;2022-10-13T04:04:01;2.53;;;0.95;;
65684;SDS011;52405;50.844;-1.062;2022-10-13T04:06:27;7.47;;;1.52;;
65684;SDS011;52405;50.844;-1.062;2022-10-13T04:08:53;3.47;;;1.35;;
65684;SDS011;52405;50.844;-1.062;2022-10-13T04:11:20;5.07;;;1.05;;
65684;SDS011;52405;50.844;-1.062;2022-10-13T04:13:45;8.65;;;1.20;;
65684;SDS011;52405;50.844;-1.062;2022-10-13T04:16:12;2.20;;;1.10;;
65684;SDS011;52405;50.844;-1.062;2022-10-13T04:18:38;2.85;;;1.15;;
65684;SDS011;52405;50.844;-1.062;2022-10-13T04:21:07;7.22;;;1.58;;
65684;SDS011;52405;50.844;-1.062;2022-10-13T04:23:34;7.43;;;1.30;;
65684;SDS011;52405;50.844;-1.062;2022-10-13T04:26:00;6.28;;;1.52;;
65684;SDS011;52405;50.844;-1.062;2022-10-13T04:28:26;3.72;;;1.55;;
65684;SDS011;52405;50.844;-1.062;2022-10-13T04:30:51;7.28;;;2.17;;
65684;SDS011;52405;50.844;-1.062;2022-10-13T04:33:17;3.20;;;1.23;;
65684;SDS011;52405;50.844;-1.062;2022-10-13T04:35:42;6.28;;;1.73;;
65684;SDS011;52405;50.844;-1.062;2022-10-13T04:38:08;7.78;;;2.13;;
65684;SDS011;52405;50.844;-1.062;2022-10-13T04:40:33;5.15;;;1.38;;
65684;SDS011;52405;50.844;-1.062;2022-10-13T04:42:59;11.68;;;1.60;;
65684;SDS011;52405;50.844;-1.062;2022-10-13T04:45:24;6.18;;;2.10;;
65684;SDS011;52405;50.844;-1.062;2022-10-13T04:47:50;5.07;;;1.50;;
65684;SDS011;52405;50.844;-1.062;2022-10-13T04:50:16;6.57;;;1.90;;
65684;SDS011;52405;50.844;-1.062;2022-10-13T04:52:42;4.50;;;1.50;;
65684;SDS011;52405;50.844;-1.062;2022-10-13T04:55:08;3.60;;;1.58;;
65684;SDS011;52405;50.844;-1.062;2022-10-13T04:57:34;3.45;;;1.40;;
65684;SDS011;52405;50.844;-1.062;2022-10-13T04:59:59;4.80;;;1.40;;
65684;SDS011;52405;50.844;-1.062;2022-10-13T05:02:25;9.23;;;2.08;;
65684;SDS011;52405;50.844;-1.062;2022-10-13T05:04:51;5.25;;;2.10;;
65684;SDS011;52405;50.844;-1.062;2022-10-13T05:07:16;7.57;;;1.92;;
65684;SDS011;52405;50.844;-1.062;2022-10-13T05:09:42;4.75;;;1.90;;
65684;SDS011;52405;50.844;-1.062;2022-10-13T05:12:08;7.10;;;2.45;;
65684;SDS011;52405;50.844;-1.062;2022-10-13T05:14:33;8.23;;;2.05;;
65684;SDS011;52405;50.844;-1.062;2022-10-13T05:16:59;6.53;;;1.90;;
65684;SDS011;52405;50.844;-1.062;2022-10-13T05:19:26;4.60;;;2.10;;
65684;SDS011;52405;50.844;-1.062;2022-10-13T05:21:51;7.43;;;1.98;;
65684;SDS011;52405;50.844;-1.062;2022-10-13T05:24:17;5.63;;;2.50;;
65684;SDS011;52405;50.844;-1.062;2022-10-13T05:26:44;5.25;;;2.35;;
65684;SDS011;52405;50.844;-1.062;2022-10-13T05:29:10;10.98;;;2.78;;
65684;SDS011;52405;50.844;-1.062;2022-10-13T05:31:35;6.22;;;2.60;;
65684;SDS011;52405;50.844;-1.062;2022-10-13T05:34:01;6.53;;;2.03;;
65684;SDS011;52405;50.844;-1.062;2022-10-13T05:36:28;5.13;;;2.50;;
65684;SDS011;52405;50.844;-1.062;2022-10-13T05:38:56;6.55;;;3.40;;
65684;SDS011;52405;50.844;-1.062;2022-10-13T05:41:24;8.07;;;2.33;;
65684;SDS011;52405;50.844;-1.062;2022-10-13T05:43:50;10.05;;;2.58;;
65684;SDS011;52405;50.844;-1.062;2022-10-13T05:46:21;7.45;;;2.17;;
65684;SDS011;52405;50.844;-1.062;2022-10-13T05:48:47;6.65;;;2.45;;
65684;SDS011;52405;50.844;-1.062;2022-10-13T05:51:15;7.35;;;2.42;;
65684;SDS011;52405;50.844;-1.062;2022-10-13T05:53:52;5.75;;;2.35;;
65684;SDS011;52405;50.844;-1.062;2022-10-13T05:56:24;6.40;;;2.20;;
65684;SDS011;52405;50.844;-1.062;2022-10-13T05:58:55;7.20;;;2.13;;
65684;SDS011;52405;50.844;-1.062;2022-10-13T06:01:27;6.93;;;3.03;;
65684;SDS011;52405;50.844;-1.062;2022-10-13T06:03:57;3.33;;;1.85;;
65684;SDS011;52405;50.844;-1.062;2022-10-13T06:06:27;5.65;;;2.25;;
65684;SDS011;52405;50.844;-1.062;2022-10-13T06:08:53;8.70;;;2.00;;
65684;SDS011;52405;50.844;-1.062;2022-10-13T06:11:19;4.65;;;2.05;;
65684;SDS011;52405;50.844;-1.062;2022-10-13T06:13:44;3.50;;;1.98;;
65684;SDS011;52405;50.844;-1.062;2022-10-13T06:16:09;8.75;;;2.60;;
65684;SDS011;52405;50.844;-1.062;2022-10-13T06:18:35;6.05;;;2.53;;
65684;SDS011;52405;50.844;-1.062;2022-10-13T06:21:01;8.18;;;2.47;;
65684;SDS011;52405;50.844;-1.062;2022-10-13T06:23:26;6.47;;;2.65;;
65684;SDS011;52405;50.844;-1.062;2022-10-13T06:25:52;6.47;;;2.20;;
65684;SDS011;52405;50.844;-1.062;2022-10-13T06:28:18;7.95;;;2.33;;
65684;SDS011;52405;50.844;-1.062;2022-10-13T06:30:45;5.50;;;2.30;;
65684;SDS011;52405;50.844;-1.062;2022-10-13T06:33:17;8.98;;;3.08;;
65684;SDS011;52405;50.844;-1.062;2022-10-13T06:35:42;6.75;;;2.75;;
65684;SDS011;52405;50.844;-1.062;2022-10-13T06:38:08;8.10;;;2.60;;
65684;SDS011;52405;50.844;-1.062;2022-10-13T06:40:33;11.48;;;3.13;;
65684;SDS011;52405;50.844;-1.062;2022-10-13T06:42:59;8.27;;;3.03;;
65684;SDS011;52405;50.844;-1.062;2022-10-13T06:45:25;5.95;;;2.83;;
65684;SDS011;52405;50.844;-1.062;2022-10-13T06:47:51;13.63;;;2.88;;
65684;SDS011;52405;50.844;-1.062;2022-10-13T06:50:18;7.00;;;3.28;;
65684;SDS011;52405;50.844;-1.062;2022-10-13T06:52:44;7.80;;;2.28;;
65684;SDS011;52405;50.844;-1.062;2022-10-13T06:55:10;10.80;;;2.47;;
65684;SDS011;52405;50.844;-1.062;2022-10-13T06:57:35;10.73;;;2.83;;
65684;SDS011;52405;50.844;-1.062;2022-10-13T07:00:01;5.47;;;1.80;;
65684;SDS011;52405;50.844;-1.062;2022-10-13T07:02:26;4.78;;;1.98;;
65684;SDS011;52405;50.844;-1.062;2022-10-13T07:04:52;7.38;;;2.08;;
65684;SDS011;52405;50.844;-1.062;2022-10-13T07:07:17;10.18;;;2.42;;
65684;SDS011;52405;50.844;-1.062;2022-10-13T07:09:43;6.82;;;1.90;;
65684;SDS011;52405;50.844;-1.062;2022-10-13T07:12:08;6.55;;;1.90;;
65684;SDS011;52405;50.844;-1.062;2022-10-13T07:14:34;7.65;;;1.98;;
65684;SDS011;52405;50.844;-1.062;2022-10-13T07:16:59;4.35;;;2.20;;
65684;SDS011;52405;50.844;-1.062;2022-10-13T07:19:25;4.70;;;1.95;;
65684;SDS011;52405;50.844;-1.062;2022-10-13T07:21:51;9.50;;;2.97;;
65684;SDS011;52405;50.844;-1.062;2022-10-13T07:24:16;8.02;;;2.30;;
65684;SDS011;52405;50.844;-1.062;2022-10-13T07:26:42;4.18;;;1.90;;
65684;SDS011;52405;50.844;-1.062;2022-10-13T07:29:07;8.40;;;2.40;;
65684;SDS011;52405;50.844;-1.062;2022-10-13T07:31:33;4.18;;;2.08;;
65684;SDS011;52405;50.844;-1.062;2022-10-13T07:33:59;10.10;;;2.28;;
65684;SDS011;52405;50.844;-1.062;2022-10-13T07:36:25;9.02;;;2.80;;
65684;SDS011;52405;50.844;-1.062;2022-10-13T07:38:51;7.45;;;3.15;;
65684;SDS011;52405;50.844;-1.062;2022-10-13T07:41:17;6.03;;;2.08;;
65684;SDS011;52405;50.844;-1.062;2022-10-13T07:43:42;7.22;;;2.55;;
65684;SDS011;52405;50.844;-1.062;2022-10-13T07:46:09;4.82;;;2.55;;
65684;SDS011;52405;50.844;-1.062;2022-10-13T07:48:37;10.55;;;2.92;;
65684;SDS011;52405;50.844;-1.062;2022-10-13T07:51:03;5.95;;;2.28;;
65684;SDS011;52405;50.844;-1.062;2022-10-13T07:53:31;4.13;;;1.83;;
65684;SDS011;52405;50.844;-1.062;2022-10-13T07:56:00;7.10;;;2.28;;
65684;SDS011;52405;50.844;-1.062;2022-10-13T07:58:27;8.10;;;3.08;;
65684;SDS011;52405;50.844;-1.062;2022-10-13T08:00:56;8.30;;;2.22;;
65684;SDS011;52405;50.844;-1.062;2022-10-13T08:03:22;9.13;;;2.53;;
65684;SDS011;52405;50.844;-1.062;2022-10-13T08:05:48;3.65;;;2.00;;
65684;SDS011;52405;50.844;-1.062;2022-10-13T08:08:13;6.18;;;2.25;;
65684;SDS011;52405;50.844;-1.062;2022-10-13T08:10:39;8.18;;;2.15;;
65684;SDS011;52405;50.844;-1.062;2022-10-13T08:13:04;3.97;;;2.13;;
65684;SDS011;52405;50.844;-1.062;2022-10-13T08:15:29;10.38;;;3.20;;
65684;SDS011;52405;50.844;-1.062;2022-10-13T08:17:55;8.45;;;2.17;;
65684;SDS011;52405;50.844;-1.062;2022-10-13T08:20:20;5.13;;;2.55;;
65684;SDS011;52405;50.844;-1.062;2022-10-13T08:22:46;7.35;;;2.70;;
65684;SDS011;52405;50.844;-1.062;2022-10-13T08:25:11;5.22;;;2.08;;
65684;SDS011;52405;50.844;-1.062;2022-10-13T08:27:37;6.47;;;2.55;;
65684;SDS011;52405;50.844;-1.062;2022-10-13T08:30:03;6.78;;;2.85;;
65684;SDS011;52405;50.844;-1.062;2022-10-13T08:32:28;5.97;;;2.10;;
65684;SDS011;52405;50.844;-1.062;2022-10-13T08:34:54;5.55;;;2.72;;
65684;SDS011;52405;50.844;-1.062;2022-10-13T08:37:19;9.82;;;3.58;;
65684;SDS011;52405;50.844;-1.062;2022-10-13T08:39:46;10.20;;;3.25;;
65684;SDS011;52405;50.844;-1.062;2022-10-13T08:42:16;7.47;;;2.25;;
65684;SDS011;52405;50.844;-1.062;2022-10-13T08:44:45;6.22;;;2.40;;
65684;SDS011;52405;50.844;-1.062;2022-10-13T08:50:20;7.45;;;1.88;;
65684;SDS011;52405;50.844;-1.062;2022-10-13T08:52:53;3.50;;;1.52;;
65684;SDS011;52405;50.844;-1.062;2022-10-13T08:57:56;3.35;;;1.65;;
65684;SDS011;52405;50.844;-1.062;2022-10-13T09:00:22;6.10;;;1.35;;
65684;SDS011;52405;50.844;-1.062;2022-10-13T09:02:49;3.00;;;1.30;;
65684;SDS011;52405;50.844;-1.062;2022-10-13T09:05:18;3.75;;;1.35;;
65684;SDS011;52405;50.844;-1.062;2022-10-13T09:07:52;7.75;;;1.88;;
65684;SDS011;52405;50.844;-1.062;2022-10-13T09:10:18;3.70;;;1.45;;
65684;SDS011;52405;50.844;-1.062;2022-10-13T09:12:44;3.33;;;1.60;;
65684;SDS011;52405;50.844;-1.062;2022-10-13T09:15:10;2.15;;;0.90;;
65684;SDS011;52405;50.844;-1.062;2022-10-13T09:17:40;2.70;;;1.40;;
65684;SDS011;52405;50.844;-1.062;2022-10-13T09:20:09;5.18;;;1.25;;
65684;SDS011;52405;50.844;-1.062;2022-10-13T09:25:45;3.63;;;1.08;;
65684;SDS011;52405;50.844;-1.062;2022-10-13T09:28:21;6.25;;;1.50;;
65684;SDS011;52405;50.844;-1.062;2022-10-13T09:30:59;1.95;;;1.20;;
65684;SDS011;52405;50.844;-1.062;2022-10-13T09:33:27;6.65;;;1.67;;
65684;SDS011;52405;50.844;-1.062;2022-10-13T09:38:22;2.97;;;1.10;;
65684;SDS011;52405;50.844;-1.062;2022-10-13T09:45:57;3.35;;;1.10;;
65684;SDS011;52405;50.844;-1.062;2022-10-13T09:48:32;2.47;;;1.10;;
65684;SDS011;52405;50.844;-1.062;2022-10-13T09:51:00;6.00;;;1.27;;
65684;SDS011;52405;50.844;-1.062;2022-10-13T09:53:33;3.60;;;1.70;;
65684;SDS011;52405;50.844;-1.062;2022-10-13T09:56:19;1.85;;;1.23;;
65684;SDS011;52405;50.844;-1.062;2022-10-13T09:59:07;2.17;;;1.23;;
65684;SDS011;52405;50.844;-1.062;2022-10-13T10:01:55;2.95;;;1.40;;
65684;SDS011;52405;50.844;-1.062;2022-10-13T10:04:28;3.38;;;1.30;;
65684;SDS011;52405;50.844;-1.062;2022-10-13T10:06:59;2.15;;;1.08;;
65684;SDS011;52405;50.844;-1.062;2022-10-13T10:09:35;3.67;;;1.38;;
65684;SDS011;52405;50.844;-1.062;2022-10-13T10:12:05;3.05;;;1.08;;
65684;SDS011;52405;50.844;-1.062;2022-10-13T10:14:37;2.25;;;0.98;;
65684;SDS011;52405;50.844;-1.062;2022-10-13T10:19:51;3.28;;;1.23;;
65684;SDS011;52405;50.844;-1.062;2022-10-13T10:25:02;2.15;;;1.45;;
65684;SDS011;52405;50.844;-1.062;2022-10-13T10:30:33;3.33;;;1.38;;
65684;SDS011;52405;50.844;-1.062;2022-10-13T10:33:08;4.55;;;1.05;;
65684;SDS011;52405;50.844;-1.062;2022-10-13T10:35:55;3.47;;;0.88;;
65684;SDS011;52405;50.844;-1.062;2022-10-13T10:38:37;2.10;;;1.50;;
65684;SDS011;52405;50.844;-1.062;2022-10-13T10:41:15;3.50;;;1.75;;
65684;SDS011;52405;50.844;-1.062;2022-10-13T10:46:23;1.52;;;0.70;;
65684;SDS011;52405;50.844;-1.062;2022-10-13T10:48:53;2.42;;;1.08;;
65684;SDS011;52405;50.844;-1.062;2022-10-13T10:51:27;2.33;;;1.00;;
65684;SDS011;52405;50.844;-1.062;2022-10-13T10:56:33;4.43;;;1.02;;
65684;SDS011;52405;50.844;-1.062;2022-10-13T11:19:42;4.53;;;1.40;;
65684;SDS011;52405;50.844;-1.062;2022-10-13T11:22:12;3.50;;;1.45;;
65684;SDS011;52405;50.844;-1.062;2022-10-13T11:51:16;1.45;;;0.90;;
65684;SDS011;52405;50.844;-1.062;2022-10-13T12:04:34;2.53;;;0.98;;
65684;SDS011;52405;50.844;-1.062;2022-10-13T12:07:01;1.85;;;1.00;;
65684;SDS011;52405;50.844;-1.062;2022-10-13T12:09:30;2.58;;;1.02;;
65684;SDS011;52405;50.844;-1.062;2022-10-13T12:12:01;0.70;;;0.70;;
65684;SDS011;52405;50.844;-1.062;2022-10-13T12:14:48;3.33;;;1.20;;
65684;SDS011;52405;50.844;-1.062;2022-10-13T12:19:54;1.52;;;0.60;;
65684;SDS011;52405;50.844;-1.062;2022-10-13T12:22:21;0.80;;;0.40;;
65684;SDS011;52405;50.844;-1.062;2022-10-13T12:24:59;3.97;;;1.40;;
65684;SDS011;52405;50.844;-1.062;2022-10-13T12:27:27;1.77;;;1.23;;
65684;SDS011;52405;50.844;-1.062;2022-10-13T12:29:57;0.95;;;0.65;;
65684;SDS011;52405;50.844;-1.062;2022-10-13T12:32:24;3.53;;;1.15;;
65684;SDS011;52405;50.844;-1.062;2022-10-13T12:34:52;1.52;;;0.70;;
65684;SDS011;52405;50.844;-1.062;2022-10-13T12:39:51;1.10;;;0.80;;
65684;SDS011;52405;50.844;-1.062;2022-10-13T12:42:17;1.55;;;0.88;;
65684;SDS011;52405;50.844;-1.062;2022-10-13T12:44:43;1.65;;;0.57;;
65684;SDS011;52405;50.844;-1.062;2022-10-13T12:52:49;1.50;;;0.60;;
65684;SDS011;52405;50.844;-1.062;2022-10-13T12:55:18;1.08;;;0.70;;
65684;SDS011;52405;50.844;-1.062;2022-10-13T12:57:45;0.52;;;0.43;;
65684;SDS011;52405;50.844;-1.062;2022-10-13T13:08:02;1.40;;;0.80;;
65684;SDS011;52405;50.844;-1.062;2022-10-13T13:10:29;2.60;;;0.90;;
65684;SDS011;52405;50.844;-1.062;2022-10-13T13:12:55;1.55;;;1.08;;
65684;SDS011;52405;50.844;-1.062;2022-10-13T13:15:38;1.50;;;0.88;;
65684;SDS011;52405;50.844;-1.062;2022-10-13T13:18:28;2.15;;;0.95;;
65684;SDS011;52405;50.844;-1.062;2022-10-13T13:21:01;2.08;;;0.80;;
65684;SDS011;52405;50.844;-1.062;2022-10-13T13:23:28;3.05;;;1.35;;
65684;SDS011;52405;50.844;-1.062;2022-10-13T13:28:41;0.93;;;0.50;;
65684;SDS011;52405;50.844;-1.062;2022-10-13T13:31:09;1.35;;;0.75;;
65684;SDS011;52405;50.844;-1.062;2022-10-13T13:33:35;3.30;;;0.90;;
65684;SDS011;52405;50.844;-1.062;2022-10-13T13:36:01;2.65;;;0.75;;
65684;SDS011;52405;50.844;-1.062;2022-10-13T13:38:26;4.40;;;0.70;;
65684;SDS011;52405;50.844;-1.062;2022-10-13T13:40:52;1.38;;;0.65;;
65684;SDS011;52405;50.844;-1.062;2022-10-13T13:43:17;1.67;;;0.80;;
65684;SDS011;52405;50.844;-1.062;2022-10-13T13:45:43;3.60;;;1.35;;
65684;SDS011;52405;50.844;-1.062;2022-10-13T13:48:10;0.85;;;0.63;;
65684;SDS011;52405;50.844;-1.062;2022-10-13T13:50:36;3.40;;;1.00;;
65684;SDS011;52405;50.844;-1.062;2022-10-13T13:53:02;1.23;;;0.60;;
65684;SDS011;52405;50.844;-1.062;2022-10-13T13:55:28;2.47;;;0.82;;
65684;SDS011;52405;50.844;-1.062;2022-10-13T13:57:54;2.30;;;0.60;;
65684;SDS011;52405;50.844;-1.062;2022-10-13T14:00:20;1.20;;;0.45;;
65684;SDS011;52405;50.844;-1.062;2022-10-13T14:02:46;1.65;;;0.82;;
65684;SDS011;52405;50.844;-1.062;2022-10-13T14:05:12;2.50;;;0.93;;
65684;SDS011;52405;50.844;-1.062;2022-10-13T14:07:38;3.28;;;0.65;;
65684;SDS011;52405;50.844;-1.062;2022-10-13T14:10:04;2.33;;;0.90;;
65684;SDS011;52405;50.844;-1.062;2022-10-13T14:12:31;1.88;;;0.70;;
65684;SDS011;52405;50.844;-1.062;2022-10-13T14:14:57;4.72;;;0.60;;
65684;SDS011;52405;50.844;-1.062;2022-10-13T14:17:23;1.95;;;0.60;;
65684;SDS011;52405;50.844;-1.062;2022-10-13T14:19:52;2.22;;;0.55;;
65684;SDS011;52405;50.844;-1.062;2022-10-13T14:22:18;0.90;;;0.60;;
65684;SDS011;52405;50.844;-1.062;2022-10-13T14:24:44;0.73;;;0.65;;
65684;SDS011;52405;50.844;-1.062;2022-10-13T14:27:09;6.70;;;0.73;;
65684;SDS011;52405;50.844;-1.062;2022-10-13T14:29:35;1.88;;;0.57;;
65684;SDS011;52405;50.844;-1.062;2022-10-13T14:32:00;0.82;;;0.82;;
65684;SDS011;52405;50.844;-1.062;2022-10-13T14:34:26;0.93;;;0.52;;
65684;SDS011;52405;50.844;-1.062;2022-10-13T14:36:51;1.48;;;0.60;;
65684;SDS011;52405;50.844;-1.062;2022-10-13T14:39:17;1.00;;;0.60;;
65684;SDS011;52405;50.844;-1.062;2022-10-13T14:41:42;1.20;;;0.63;;
65684;SDS011;52405;50.844;-1.062;2022-10-13T14:44:09;1.13;;;0.80;;
65684;SDS011;52405;50.844;-1.062;2022-10-13T14:46:37;1.40;;;1.02;;
65684;SDS011;52405;50.844;-1.062;2022-10-13T14:49:02;2.53;;;0.50;;
65684;SDS011;52405;50.844;-1.062;2022-10-13T14:51:28;1.00;;;0.70;;
65684;SDS011;52405;50.844;-1.062;2022-10-13T14:53:53;1.58;;;0.70;;
65684;SDS011;52405;50.844;-1.062;2022-10-13T14:56:23;1.70;;;0.80;;
65684;SDS011;52405;50.844;-1.062;2022-10-13T14:58:51;4.22;;;0.80;;
65684;SDS011;52405;50.844;-1.062;2022-10-13T15:01:18;2.05;;;1.00;;
65684;SDS011;52405;50.844;-1.062;2022-10-13T15:03:44;2.08;;;1.17;;
65684;SDS011;52405;50.844;-1.062;2022-10-13T15:06:13;1.00;;;0.60;;
65684;SDS011;52405;50.844;-1.062;2022-10-13T15:08:40;2.00;;;0.98;;
65684;SDS011;52405;50.844;-1.062;2022-10-13T15:11:06;1.80;;;1.20;;
65684;SDS011;52405;50.844;-1.062;2022-10-13T15:13:32;1.75;;;0.90;;
65684;SDS011;52405;50.844;-1.062;2022-10-13T15:15:57;1.65;;;0.60;;
65684;SDS011;52405;50.844;-1.062;2022-10-13T15:18:25;2.10;;;0.75;;
65684;SDS011;52405;50.844;-1.062;2022-10-13T15:20:52;3.45;;;1.35;;
65684;SDS011;52405;50.844;-1.062;2022-10-13T15:23:17;4.40;;;0.90;;
65684;SDS011;52405;50.844;-1.062;2022-10-13T15:25:53;2.72;;;1.27;;
65684;SDS011;52405;50.844;-1.062;2022-10-13T15:28:21;2.35;;;1.45;;
65684;SDS011;52405;50.844;-1.062;2022-10-13T15:30:47;2.40;;;0.75;;
65684;SDS011;52405;50.844;-1.062;2022-10-13T15:33:12;0.98;;;0.63;;
65684;SDS011;52405;50.844;-1.062;2022-10-13T15:35:38;1.73;;;0.90;;
65684;SDS011;52405;50.844;-1.062;2022-10-13T15:38:03;3.13;;;0.95;;
65684;SDS011;52405;50.844;-1.062;2022-10-13T15:40:29;1.25;;;0.80;;
65684;SDS011;52405;50.844;-1.062;2022-10-13T15:42:57;1.42;;;0.55;;
65684;SDS011;52405;50.844;-1.062;2022-10-13T15:45:25;1.95;;;0.88;;
65684;SDS011;52405;50.844;-1.062;2022-10-13T15:47:51;3.92;;;1.10;;
65684;SDS011;52405;50.844;-1.062;2022-10-13T15:50:17;1.25;;;1.10;;
65684;SDS011;52405;50.844;-1.062;2022-10-13T15:52:43;1.20;;;0.73;;
65684;SDS011;52405;50.844;-1.062;2022-10-13T15:55:09;1.42;;;0.80;;
65684;SDS011;52405;50.844;-1.062;2022-10-13T15:57:36;4.45;;;1.63;;
65684;SDS011;52405;50.844;-1.062;2022-10-13T16:00:06;3.35;;;0.93;;
65684;SDS011;52405;50.844;-1.062;2022-10-13T16:02:34;3.53;;;0.80;;
65684;SDS011;52405;50.844;-1.062;2022-10-13T16:05:00;2.17;;;0.93;;
65684;SDS011;52405;50.844;-1.062;2022-10-13T16:07:31;3.08;;;1.00;;
65684;SDS011;52405;50.844;-1.062;2022-10-13T16:09:57;2.25;;;0.93;;
65684;SDS011;52405;50.844;-1.062;2022-10-13T16:12:22;2.85;;;0.90;;
65684;SDS011;52405;50.844;-1.062;2022-10-13T16:14:50;2.60;;;1.45;;
65684;SDS011;52405;50.844;-1.062;2022-10-13T16:17:16;3.00;;;1.70;;
65684;SDS011;52405;50.844;-1.062;2022-10-13T16:19:41;2.45;;;1.00;;
65684;SDS011;52405;50.844;-1.062;2022-10-13T16:22:07;3.10;;;1.23;;
65684;SDS011;52405;50.844;-1.062;2022-10-13T16:24:33;1.23;;;0.90;;
65684;SDS011;52405;50.844;-1.062;2022-10-13T16:26:59;5.80;;;1.88;;
65684;SDS011;52405;50.844;-1.062;2022-10-13T16:29:25;1.98;;;1.05;;
65684;SDS011;52405;50.844;-1.062;2022-10-13T16:31:50;2.08;;;1.02;;
65684;SDS011;52405;50.844;-1.062;2022-10-13T16:34:16;1.73;;;1.42;;
65684;SDS011;52405;50.844;-1.062;2022-10-13T16:36:42;2.72;;;1.88;;
65684;SDS011;52405;50.844;-1.062;2022-10-13T16:39:07;4.53;;;1.52;;
65684;SDS011;52405;50.844;-1.062;2022-10-13T16:41:33;2.50;;;1.65;;
65684;SDS011;52405;50.844;-1.062;2022-10-13T16:43:59;1.85;;;1.50;;
65684;SDS011;52405;50.844;-1.062;2022-10-13T16:46:24;1.60;;;1.02;;
65684;SDS011;52405;50.844;-1.062;2022-10-13T16:48:50;3.15;;;1.13;;
65684;SDS011;52405;50.844;-1.062;2022-10-13T16:51:17;1.42;;;1.10;;
65684;SDS011;52405;50.844;-1.062;2022-10-13T16:53:47;2.30;;;1.00;;
65684;SDS011;52405;50.844;-1.062;2022-10-13T16:56:21;3.47;;;1.15;;
65684;SDS011;52405;50.844;-1.062;2022-10-13T17:01:23;2.22;;;1.05;;